Time;durP1;ratioP1;P1;durP2;ratioP2;P2;SDS_P1;SDS_P2;PMS_P1;PMS_P2;Temp;Humidity;BMP_temperature;BMP_pressure;BME280_temperature;BME280_humidity;BME280_pressure;Samples;Min_cycle;Max_cycle;Signal;HPM_P1;HPM_P2
2022/05/22 00:01:12;;;;;;;2.30;1.50;;;;;;;;;;5029838;28;20716;-68
2022/05/22 00:03:38;;;;;;;2.97;1.50;;;;;;;;;;5025650;28;20183;-69
2022/05/22 00:06:05;;;;;;;2.35;1.70;;;;;;;;;;5036947;28;20194;-68
2022/05/22 00:08:30;;;;;;;3.03;1.80;;;;;;;;;;5031290;28;20686;-68
2022/05/22 00:10:56;;;;;;;4.60;2.22;;;;;;;;;;5026435;28;20190;-67
2022/05/22 00:13:22;;;;;;;5.22;2.03;;;;;;;;;;5009342;28;20672;-68
2022/05/22 00:18:33;;;;;;;2.55;1.70;;;;;;;;;;5026067;28;20260;-68
2022/05/22 00:20:59;;;;;;;3.38;1.90;;;;;;;;;;5024877;28;20186;-68
2022/05/22 00:23:25;;;;;;;4.47;1.65;;;;;;;;;;5009223;28;20715;-67
2022/05/22 00:25:55;;;;;;;4.25;1.90;;;;;;;;;;5026166;28;20266;-68
2022/05/22 00:28:21;;;;;;;3.58;2.13;;;;;;;;;;5025530;28;20669;-68
2022/05/22 00:30:47;;;;;;;3.15;1.52;;;;;;;;;;5024952;28;20194;-70
2022/05/22 00:33:13;;;;;;;2.90;1.80;;;;;;;;;;5012501;28;20187;-68
2022/05/22 00:35:40;;;;;;;3.35;1.65;;;;;;;;;;5030121;28;20232;-69
2022/05/22 00:38:06;;;;;;;5.00;1.67;;;;;;;;;;5029070;28;20247;-67
2022/05/22 00:40:33;;;;;;;3.80;1.52;;;;;;;;;;5024314;28;20190;-68
2022/05/22 00:42:59;;;;;;;3.45;1.40;;;;;;;;;;5024671;28;20201;-68
2022/05/22 00:45:25;;;;;;;6.18;2.20;;;;;;;;;;5024183;28;20333;-67
2022/05/22 00:47:51;;;;;;;4.00;1.60;;;;;;;;;;5024295;28;20256;-69
2022/05/22 00:50:29;;;;;;;2.97;1.70;;;;;;;;;;5042614;28;20206;-67
2022/05/22 00:52:57;;;;;;;2.67;1.48;;;;;;;;;;5040720;28;20527;-67
2022/05/22 00:55:29;;;;;;;2.03;1.50;;;;;;;;;;5038806;28;20548;-68
2022/05/22 00:58:09;;;;;;;3.50;1.90;;;;;;;;;;5045721;28;20213;-67
2022/05/22 01:00:36;;;;;;;1.95;1.48;;;;;;;;;;5038293;28;20178;-67
2022/05/22 01:05:49;;;;;;;3.70;2.30;;;;;;;;;;5033262;28;20212;-68
2022/05/22 01:08:15;;;;;;;3.28;1.90;;;;;;;;;;5037431;28;20276;-67
2022/05/22 01:10:44;;;;;;;3.87;1.80;;;;;;;;;;5038615;28;20215;-67
2022/05/22 01:13:11;;;;;;;2.80;1.90;;;;;;;;;;5043693;28;20625;-68
2022/05/22 01:15:37;;;;;;;3.77;1.87;;;;;;;;;;5041134;28;20611;-67
2022/05/22 01:18:03;;;;;;;2.43;1.80;;;;;;;;;;5041392;28;20290;-67
2022/05/22 01:23:33;;;;;;;7.05;1.92;;;;;;;;;;5048489;28;20231;-67
2022/05/22 01:25:59;;;;;;;3.20;1.73;;;;;;;;;;5038079;28;20197;-69
2022/05/22 01:28:34;;;;;;;3.87;2.00;;;;;;;;;;5048100;28;20210;-69
2022/05/22 01:31:00;;;;;;;3.47;2.00;;;;;;;;;;5039658;28;20193;-70
2022/05/22 01:33:27;;;;;;;3.13;2.00;;;;;;;;;;5040534;28;20213;-68
2022/05/22 01:35:53;;;;;;;3.50;2.00;;;;;;;;;;5035465;28;20303;-67
2022/05/22 01:38:19;;;;;;;2.87;2.27;;;;;;;;;;5034722;28;20445;-69
2022/05/22 01:40:45;;;;;;;4.10;2.20;;;;;;;;;;5032622;28;20750;-68
2022/05/22 01:43:11;;;;;;;4.50;1.97;;;;;;;;;;5017864;28;20195;-68
2022/05/22 01:45:37;;;;;;;2.67;2.03;;;;;;;;;;5027200;28;20221;-68
2022/05/22 01:48:03;;;;;;;6.27;2.00;;;;;;;;;;5031353;28;20712;-68
2022/05/22 01:50:30;;;;;;;4.00;2.58;;;;;;;;;;5027971;28;20199;-68
2022/05/22 01:52:56;;;;;;;3.87;2.23;;;;;;;;;;5028010;28;20764;-67
2022/05/22 01:55:22;;;;;;;2.67;1.90;;;;;;;;;;5034031;28;20688;-67
2022/05/22 01:57:48;;;;;;;4.23;2.30;;;;;;;;;;5028100;28;20290;-69
2022/05/22 02:00:15;;;;;;;2.20;2.00;;;;;;;;;;5027514;28;20278;-69
2022/05/22 02:02:41;;;;;;;3.95;2.08;;;;;;;;;;5027600;28;20179;-68
2022/05/22 02:05:07;;;;;;;2.60;2.10;;;;;;;;;;5034227;28;20194;-68
2022/05/22 02:10:19;;;;;;;4.20;2.37;;;;;;;;;;5036303;28;20202;-68
2022/05/22 02:12:45;;;;;;;4.40;2.10;;;;;;;;;;5041880;28;20243;-67
2022/05/22 02:15:11;;;;;;;2.57;1.73;;;;;;;;;;5026629;28;20646;-68
2022/05/22 02:17:37;;;;;;;3.73;2.17;;;;;;;;;;5036364;28;20211;-67
2022/05/22 02:20:03;;;;;;;2.90;1.90;;;;;;;;;;5031871;28;20183;-68
2022/05/22 02:22:29;;;;;;;4.63;2.27;;;;;;;;;;5034368;28;20187;-69
2022/05/22 02:24:56;;;;;;;3.83;2.00;;;;;;;;;;5031251;28;20594;-70
2022/05/22 02:27:22;;;;;;;5.57;2.20;;;;;;;;;;5028235;28;20278;-68
2022/05/22 02:29:48;;;;;;;4.93;2.50;;;;;;;;;;5027334;28;20328;-68
2022/05/22 02:32:14;;;;;;;7.43;2.80;;;;;;;;;;5035306;28;20757;-69
2022/05/22 02:34:40;;;;;;;3.60;2.50;;;;;;;;;;5034608;28;20179;-66
2022/05/22 02:37:06;;;;;;;5.17;2.43;;;;;;;;;;5029686;28;20551;-68
2022/05/22 02:39:32;;;;;;;2.93;2.17;;;;;;;;;;5027871;28;20956;-71
2022/05/22 02:42:05;;;;;;;3.57;2.40;;;;;;;;;;5027534;28;20227;-67
2022/05/22 02:44:32;;;;;;;4.00;2.10;;;;;;;;;;5027280;28;20187;-70
2022/05/22 02:46:58;;;;;;;2.93;2.03;;;;;;;;;;5031922;28;20233;-69
2022/05/22 02:49:24;;;;;;;2.37;2.13;;;;;;;;;;5026654;28;20273;-67
2022/05/22 02:51:50;;;;;;;4.33;2.20;;;;;;;;;;5026691;28;20237;-66
2022/05/22 02:54:16;;;;;;;3.67;1.80;;;;;;;;;;5028921;28;20644;-68
2022/05/22 02:56:42;;;;;;;4.70;2.10;;;;;;;;;;5032786;28;20245;-67
2022/05/22 02:59:08;;;;;;;3.47;2.13;;;;;;;;;;5033712;28;20764;-69
2022/05/22 03:01:34;;;;;;;2.50;1.70;;;;;;;;;;5026743;28;20278;-69
2022/05/22 03:04:00;;;;;;;4.00;2.10;;;;;;;;;;5030841;28;20270;-68
2022/05/22 03:06:38;;;;;;;2.97;2.20;;;;;;;;;;5026068;28;20668;-68
2022/05/22 03:09:17;;;;;;;2.73;2.00;;;;;;;;;;5031295;28;20222;-67
2022/05/22 03:11:43;;;;;;;2.57;1.90;;;;;;;;;;5033673;28;20186;-68
2022/05/22 03:14:10;;;;;;;2.53;1.90;;;;;;;;;;5025718;28;20270;-67
2022/05/22 03:16:36;;;;;;;4.63;2.23;;;;;;;;;;5026199;28;20217;-69
2022/05/22 03:19:03;;;;;;;3.13;2.17;;;;;;;;;;5026487;28;20215;-68
2022/05/22 03:21:29;;;;;;;3.73;2.23;;;;;;;;;;5027915;28;20807;-69
2022/05/22 03:23:55;;;;;;;3.70;2.23;;;;;;;;;;5025770;28;20241;-68
2022/05/22 03:26:22;;;;;;;3.83;1.80;;;;;;;;;;5026483;28;20199;-67
2022/05/22 03:28:48;;;;;;;2.60;1.97;;;;;;;;;;5037283;28;20747;-68
2022/05/22 03:31:16;;;;;;;2.30;1.70;;;;;;;;;;5029601;28;20182;-67
2022/05/22 03:33:42;;;;;;;4.90;2.30;;;;;;;;;;5025859;28;20192;-67
2022/05/22 03:36:08;;;;;;;2.63;1.90;;;;;;;;;;5025903;28;20715;-68
2022/05/22 03:38:34;;;;;;;4.03;1.87;;;;;;;;;;5026022;28;20202;-68
2022/05/22 03:41:00;;;;;;;2.87;1.80;;;;;;;;;;5031412;28;20183;-68
2022/05/22 03:43:26;;;;;;;3.90;2.10;;;;;;;;;;5027814;28;20190;-68
2022/05/22 03:45:52;;;;;;;7.10;2.10;;;;;;;;;;5033756;28;20306;-68
2022/05/22 03:48:18;;;;;;;3.10;1.60;;;;;;;;;;5039155;28;20681;-68
2022/05/22 03:50:44;;;;;;;3.97;2.30;;;;;;;;;;5034480;28;20199;-69
2022/05/22 03:53:10;;;;;;;2.90;2.10;;;;;;;;;;5025651;28;20187;-68
2022/05/22 03:55:36;;;;;;;2.27;1.80;;;;;;;;;;5025406;28;20211;-69
2022/05/22 03:58:02;;;;;;;2.27;1.90;;;;;;;;;;5025846;28;20289;-68
2022/05/22 04:00:28;;;;;;;3.03;1.53;;;;;;;;;;5025996;28;20260;-67
2022/05/22 04:02:54;;;;;;;4.80;1.80;;;;;;;;;;5028643;28;20195;-69
2022/05/22 04:05:20;;;;;;;4.87;1.87;;;;;;;;;;5030215;28;20277;-68
2022/05/22 04:07:48;;;;;;;4.63;1.60;;;;;;;;;;5035014;28;20215;-68
2022/05/22 04:10:15;;;;;;;2.33;1.67;;;;;;;;;;5027863;28;21404;-69
2022/05/22 04:12:44;;;;;;;2.97;1.37;;;;;;;;;;5028193;28;20190;-68
2022/05/22 04:15:12;;;;;;;6.37;1.70;;;;;;;;;;5013329;28;20249;-68
2022/05/22 04:17:38;;;;;;;2.83;1.80;;;;;;;;;;5025115;28;20265;-69
2022/05/22 04:20:04;;;;;;;1.77;1.47;;;;;;;;;;5036658;28;20251;-68
2022/05/22 04:22:30;;;;;;;3.83;1.60;;;;;;;;;;5026693;28;20191;-69
2022/05/22 04:25:11;;;;;;;6.70;2.10;;;;;;;;;;5029879;28;20657;-68
2022/05/22 04:27:41;;;;;;;3.30;1.60;;;;;;;;;;5025042;28;20260;-67
2022/05/22 04:30:08;;;;;;;3.10;1.53;;;;;;;;;;5029395;28;20594;-66
2022/05/22 04:32:34;;;;;;;3.73;1.87;;;;;;;;;;5030361;28;20193;-68
2022/05/22 04:35:00;;;;;;;2.13;1.60;;;;;;;;;;5037848;28;20618;-68
2022/05/22 04:37:26;;;;;;;3.57;1.50;;;;;;;;;;5030701;28;20569;-68
2022/05/22 04:39:52;;;;;;;2.30;1.80;;;;;;;;;;5030908;28;20541;-68
2022/05/22 04:42:18;;;;;;;2.03;1.70;;;;;;;;;;5034549;28;20252;-67
2022/05/22 04:44:44;;;;;;;3.50;2.30;;;;;;;;;;5023933;28;20187;-68
2022/05/22 04:47:10;;;;;;;1.50;1.40;;;;;;;;;;5024649;28;20543;-69
2022/05/22 04:49:36;;;;;;;2.92;1.73;;;;;;;;;;5024868;28;20668;-68
2022/05/22 04:52:02;;;;;;;2.65;1.30;;;;;;;;;;5024737;28;20186;-69
2022/05/22 04:54:28;;;;;;;2.45;1.40;;;;;;;;;;5024468;28;20646;-69
2022/05/22 04:56:54;;;;;;;3.80;1.48;;;;;;;;;;5024000;28;20240;-68
2022/05/22 04:59:21;;;;;;;4.72;1.40;;;;;;;;;;5024746;28;20227;-69
2022/05/22 05:01:47;;;;;;;2.05;1.25;;;;;;;;;;5031449;28;20179;-69
2022/05/22 05:04:13;;;;;;;1.00;0.90;;;;;;;;;;5027879;28;20213;-68
2022/05/22 05:06:39;;;;;;;2.15;1.00;;;;;;;;;;5026249;28;20536;-67
2022/05/22 05:09:05;;;;;;;3.97;1.38;;;;;;;;;;5029358;28;20448;-69
2022/05/22 05:11:31;;;;;;;3.15;1.10;;;;;;;;;;5024664;28;20198;-68
2022/05/22 05:13:57;;;;;;;3.75;1.40;;;;;;;;;;5029903;28;20229;-69
2022/05/22 05:16:23;;;;;;;3.33;1.30;;;;;;;;;;5023689;28;20292;-68
2022/05/22 05:18:49;;;;;;;2.95;1.10;;;;;;;;;;5023192;28;20650;-68
2022/05/22 05:21:18;;;;;;;2.60;1.10;;;;;;;;;;5028695;28;20192;-70
2022/05/22 05:23:44;;;;;;;2.60;1.02;;;;;;;;;;5028224;28;20179;-68
2022/05/22 05:26:10;;;;;;;3.03;1.38;;;;;;;;;;5039585;28;20235;-67
2022/05/22 05:28:36;;;;;;;2.28;0.88;;;;;;;;;;5033127;28;20210;-68
2022/05/22 05:31:03;;;;;;;4.50;1.15;;;;;;;;;;5012213;28;20222;-67
2022/05/22 05:33:32;;;;;;;3.13;1.00;;;;;;;;;;5029476;28;20179;-67
2022/05/22 05:35:58;;;;;;;3.22;1.15;;;;;;;;;;5028216;28;20309;-68
2022/05/22 05:38:24;;;;;;;2.80;1.02;;;;;;;;;;5028006;28;20769;-67
2022/05/22 05:40:50;;;;;;;3.75;1.33;;;;;;;;;;5028294;28;20269;-68
2022/05/22 05:43:16;;;;;;;3.22;0.88;;;;;;;;;;5033834;28;20630;-68
2022/05/22 05:45:43;;;;;;;4.07;1.48;;;;;;;;;;5034941;28;20241;-69
2022/05/22 05:48:09;;;;;;;2.58;1.13;;;;;;;;;;5031734;28;20212;-68
2022/05/22 05:50:35;;;;;;;3.40;1.52;;;;;;;;;;5028822;28;20270;-68
2022/05/22 05:53:02;;;;;;;5.55;1.40;;;;;;;;;;5032131;28;20276;-68
2022/05/22 05:55:28;;;;;;;3.47;1.30;;;;;;;;;;5028934;28;20206;-69
2022/05/22 05:57:54;;;;;;;3.92;1.00;;;;;;;;;;5033707;28;20198;-70
2022/05/22 06:00:22;;;;;;;3.45;1.55;;;;;;;;;;5032061;28;20265;-68
2022/05/22 06:02:48;;;;;;;2.47;1.27;;;;;;;;;;5030204;28;20186;-70
2022/05/22 06:05:15;;;;;;;4.63;1.42;;;;;;;;;;5027282;28;20191;-68
2022/05/22 06:07:41;;;;;;;3.42;1.15;;;;;;;;;;5029558;28;20259;-71
2022/05/22 06:10:08;;;;;;;4.22;1.33;;;;;;;;;;5032628;28;20614;-68
2022/05/22 06:12:34;;;;;;;3.15;1.05;;;;;;;;;;5035412;28;20332;-67
2022/05/22 06:15:00;;;;;;;3.35;1.20;;;;;;;;;;5031194;28;20207;-70
2022/05/22 06:17:30;;;;;;;2.47;1.10;;;;;;;;;;5032923;28;20190;-68
2022/05/22 06:19:57;;;;;;;2.35;1.08;;;;;;;;;;5035029;28;20237;-68
2022/05/22 06:22:24;;;;;;;3.22;1.40;;;;;;;;;;5027675;28;20181;-69
2022/05/22 06:24:50;;;;;;;3.58;1.38;;;;;;;;;;5034183;28;20265;-70
2022/05/22 06:27:16;;;;;;;3.92;1.63;;;;;;;;;;5030879;28;20187;-68
2022/05/22 06:29:43;;;;;;;2.17;1.05;;;;;;;;;;5030139;28;20564;-69
2022/05/22 06:32:11;;;;;;;2.47;1.15;;;;;;;;;;5035783;28;20193;-68
2022/05/22 06:34:41;;;;;;;4.85;1.70;;;;;;;;;;5028243;28;20650;-69
2022/05/22 06:37:09;;;;;;;4.38;1.63;;;;;;;;;;5027980;28;20239;-68
2022/05/22 06:39:54;;;;;;;4.00;1.60;;;;;;;;;;5030978;28;20202;-68
2022/05/22 06:42:31;;;;;;;4.93;1.70;;;;;;;;;;5030069;28;20179;-68
2022/05/22 06:45:03;;;;;;;5.05;1.73;;;;;;;;;;5029485;28;20699;-68
2022/05/22 06:47:30;;;;;;;3.13;1.92;;;;;;;;;;5034789;28;20217;-68
2022/05/22 06:49:57;;;;;;;2.67;1.55;;;;;;;;;;5028074;28;20191;-68
2022/05/22 06:52:24;;;;;;;5.90;2.00;;;;;;;;;;5036456;28;20301;-69
2022/05/22 06:54:50;;;;;;;4.75;1.88;;;;;;;;;;5028122;28;20705;-67
2022/05/22 06:57:17;;;;;;;4.00;1.60;;;;;;;;;;5037288;28;20190;-68
2022/05/22 06:59:44;;;;;;;3.78;2.15;;;;;;;;;;5029510;28;20828;-69
2022/05/22 07:02:10;;;;;;;4.88;2.10;;;;;;;;;;5031009;28;20260;-68
2022/05/22 07:04:36;;;;;;;5.30;2.15;;;;;;;;;;5036997;28;20265;-68
2022/05/22 07:07:02;;;;;;;2.83;2.00;;;;;;;;;;5026506;28;20617;-67
2022/05/22 07:09:28;;;;;;;4.57;2.50;;;;;;;;;;5031826;28;20268;-68
2022/05/22 07:11:55;;;;;;;5.20;2.28;;;;;;;;;;5027018;28;20181;-68
2022/05/22 07:14:21;;;;;;;3.88;2.00;;;;;;;;;;5032630;28;20183;-67
2022/05/22 07:16:47;;;;;;;6.32;2.47;;;;;;;;;;5030129;28;20743;-66
2022/05/22 07:19:14;;;;;;;6.47;2.50;;;;;;;;;;5026471;28;20277;-69
2022/05/22 07:21:40;;;;;;;4.75;2.30;;;;;;;;;;5026780;28;20183;-69
2022/05/22 07:24:06;;;;;;;5.90;2.70;;;;;;;;;;5027670;28;20193;-69
2022/05/22 07:26:32;;;;;;;5.72;2.38;;;;;;;;;;5030561;28;20201;-69
2022/05/22 07:28:58;;;;;;;5.45;3.05;;;;;;;;;;5026620;28;20282;-68
2022/05/22 07:31:25;;;;;;;6.80;3.08;;;;;;;;;;5028031;28;20274;-67
2022/05/22 07:33:52;;;;;;;7.53;2.70;;;;;;;;;;5034574;28;20182;-67
2022/05/22 07:36:18;;;;;;;5.03;2.50;;;;;;;;;;5026756;28;20219;-68
2022/05/22 07:38:45;;;;;;;6.97;2.97;;;;;;;;;;5029586;28;20217;-69
2022/05/22 07:41:12;;;;;;;7.65;3.30;;;;;;;;;;5030124;28;20201;-68
2022/05/22 07:43:38;;;;;;;4.97;2.83;;;;;;;;;;5032603;28;20183;-69
2022/05/22 07:46:04;;;;;;;4.72;2.72;;;;;;;;;;5025358;28;20268;-68
2022/05/22 07:48:31;;;;;;;4.65;2.30;;;;;;;;;;5032740;28;20953;-68
2022/05/22 07:50:57;;;;;;;5.80;2.45;;;;;;;;;;5026525;28;20262;-68
2022/05/22 07:53:24;;;;;;;6.18;3.13;;;;;;;;;;5034386;28;20201;-69
2022/05/22 07:55:50;;;;;;;4.10;2.80;;;;;;;;;;5030292;28;20210;-70
2022/05/22 07:58:17;;;;;;;5.13;2.40;;;;;;;;;;5010398;28;20248;-72
2022/05/22 08:00:43;;;;;;;6.90;2.90;;;;;;;;;;5037208;28;20327;-69
2022/05/22 08:03:13;;;;;;;3.95;2.13;;;;;;;;;;5032307;28;20255;-70
2022/05/22 08:05:39;;;;;;;5.65;2.50;;;;;;;;;;5031150;28;20194;-69
2022/05/22 08:08:05;;;;;;;4.47;2.00;;;;;;;;;;5030240;28;20211;-68
2022/05/22 08:10:32;;;;;;;5.15;2.33;;;;;;;;;;5036683;28;20272;-70
2022/05/22 08:12:58;;;;;;;3.45;2.00;;;;;;;;;;5033491;28;20229;-69
2022/05/22 08:15:25;;;;;;;4.35;2.15;;;;;;;;;;5026571;28;20207;-68
2022/05/22 08:17:51;;;;;;;3.80;1.90;;;;;;;;;;5033310;28;20209;-68
2022/05/22 08:20:19;;;;;;;4.70;2.20;;;;;;;;;;5030840;28;20187;-69
2022/05/22 08:22:45;;;;;;;4.63;1.70;;;;;;;;;;5035345;28;20547;-70
2022/05/22 08:25:15;;;;;;;3.92;1.67;;;;;;;;;;5028955;28;20206;-67
2022/05/22 08:27:42;;;;;;;3.35;1.83;;;;;;;;;;5031360;28;20205;-68
2022/05/22 08:30:12;;;;;;;4.50;1.88;;;;;;;;;;5026596;28;20186;-67
2022/05/22 08:32:38;;;;;;;5.82;1.92;;;;;;;;;;5027714;28;20295;-68
2022/05/22 08:35:05;;;;;;;2.95;1.42;;;;;;;;;;5036268;28;20672;-71
2022/05/22 08:37:32;;;;;;;3.15;1.20;;;;;;;;;;5025328;28;20195;-69
2022/05/22 08:39:58;;;;;;;1.80;1.30;;;;;;;;;;5038486;28;20221;-69
2022/05/22 08:59:16;;;;;;;4.10;1.70;;;;;;;;;;5350788;23;20231;-69
2022/05/22 09:01:45;;;;;;;2.90;2.00;;;;;;;;;;5009015;28;20187;-69
2022/05/22 09:04:11;;;;;;;3.65;1.60;;;;;;;;;;5007476;28;20230;-68
2022/05/22 09:06:39;;;;;;;2.63;1.55;;;;;;;;;;5013779;28;20245;-68
2022/05/22 09:09:05;;;;;;;3.97;1.90;;;;;;;;;;5034895;28;20203;-68
2022/05/22 09:11:50;;;;;;;3.45;1.67;;;;;;;;;;5034769;28;20264;-69
2022/05/22 09:14:16;;;;;;;4.10;1.95;;;;;;;;;;5027648;28;20198;-68
2022/05/22 09:16:42;;;;;;;3.78;1.65;;;;;;;;;;5039486;28;20229;-68
2022/05/22 09:19:10;;;;;;;5.40;1.60;;;;;;;;;;5030881;28;20257;-68
2022/05/22 09:21:36;;;;;;;6.05;2.13;;;;;;;;;;5036416;28;20182;-68
2022/05/22 09:24:06;;;;;;;2.17;1.70;;;;;;;;;;5037267;28;20667;-68
2022/05/22 09:26:43;;;;;;;3.53;1.70;;;;;;;;;;5034818;28;20186;-67
2022/05/22 09:29:34;;;;;;;3.45;2.25;;;;;;;;;;5030358;28;20210;-68
2022/05/22 09:32:03;;;;;;;3.78;2.38;;;;;;;;;;5033015;28;20187;-68
2022/05/22 09:34:29;;;;;;;3.88;1.80;;;;;;;;;;5031580;28;20680;-69
2022/05/22 09:37:01;;;;;;;5.32;2.22;;;;;;;;;;5028710;28;20218;-68
2022/05/22 09:39:31;;;;;;;3.72;1.92;;;;;;;;;;5032414;28;20565;-68
2022/05/22 09:41:56;;;;;;;3.95;2.28;;;;;;;;;;5037068;28;20274;-68
2022/05/22 09:44:40;;;;;;;2.78;1.90;;;;;;;;;;5031411;28;20265;-68
2022/05/22 09:47:26;;;;;;;5.10;1.70;;;;;;;;;;5037201;28;20675;-68
2022/05/22 09:50:12;;;;;;;4.25;1.98;;;;;;;;;;4982481;28;20206;-68
2022/05/22 09:52:38;;;;;;;5.07;1.88;;;;;;;;;;5037968;28;20657;-69
2022/05/22 09:55:23;;;;;;;2.70;1.63;;;;;;;;;;5030859;28;20210;-69
2022/05/22 09:57:58;;;;;;;4.50;2.03;;;;;;;;;;5025092;28;20214;-69
2022/05/22 10:00:29;;;;;;;5.13;1.70;;;;;;;;;;5026493;28;20193;-69
2022/05/22 10:03:09;;;;;;;3.45;1.80;;;;;;;;;;5036418;28;20683;-69
2022/05/22 10:05:38;;;;;;;2.33;1.63;;;;;;;;;;5034035;28;20190;-69
2022/05/22 10:08:10;;;;;;;1.88;1.40;;;;;;;;;;5036488;28;20202;-69
2022/05/22 10:10:36;;;;;;;4.47;1.60;;;;;;;;;;5029992;28;20189;-70
2022/05/22 10:13:02;;;;;;;4.43;1.50;;;;;;;;;;5036570;28;20194;-69
2022/05/22 10:15:34;;;;;;;3.03;1.35;;;;;;;;;;5038538;28;20199;-69
2022/05/22 10:18:00;;;;;;;2.17;1.30;;;;;;;;;;5029973;28;20673;-69
2022/05/22 10:20:35;;;;;;;4.60;1.95;;;;;;;;;;5037771;28;20276;-69
2022/05/22 10:23:16;;;;;;;3.40;2.08;;;;;;;;;;5037114;28;20213;-68
2022/05/22 10:26:05;;;;;;;4.63;2.00;;;;;;;;;;5037127;28;20183;-68
2022/05/22 10:28:36;;;;;;;3.90;1.90;;;;;;;;;;5032472;28;20218;-68
2022/05/22 10:31:08;;;;;;;6.50;1.85;;;;;;;;;;5034080;28;20546;-68
2022/05/22 10:33:52;;;;;;;4.78;1.98;;;;;;;;;;5032520;28;20665;-69
2022/05/22 10:36:22;;;;;;;2.55;1.83;;;;;;;;;;5033899;28;20207;-68
2022/05/22 10:38:55;;;;;;;4.30;1.77;;;;;;;;;;5039926;28;20202;-67
2022/05/22 10:44:30;;;;;;;3.22;1.30;;;;;;;;;;5035160;28;20227;-70
2022/05/22 10:46:59;;;;;;;2.22;1.20;;;;;;;;;;5039389;28;20663;-68
2022/05/22 10:49:34;;;;;;;3.28;1.85;;;;;;;;;;5030637;28;20233;-69
2022/05/22 10:52:02;;;;;;;3.83;1.90;;;;;;;;;;5031603;28;20198;-69
2022/05/22 10:54:33;;;;;;;5.38;2.63;;;;;;;;;;5037922;28;20186;-67
2022/05/22 10:57:09;;;;;;;3.15;1.67;;;;;;;;;;5042984;28;20221;-68
2022/05/22 10:59:35;;;;;;;5.45;1.55;;;;;;;;;;5030073;28;20221;-68
2022/05/22 11:02:04;;;;;;;4.18;2.25;;;;;;;;;;5035193;28;20178;-68
2022/05/22 11:04:43;;;;;;;3.78;1.77;;;;;;;;;;5032738;28;20186;-68
2022/05/22 11:07:09;;;;;;;4.53;1.58;;;;;;;;;;5035995;28;20221;-69
2022/05/22 11:09:45;;;;;;;1.98;1.50;;;;;;;;;;5030268;28;20213;-67
2022/05/22 11:12:12;;;;;;;4.00;1.30;;;;;;;;;;5035803;28;20186;-69
2022/05/22 11:14:39;;;;;;;4.25;1.40;;;;;;;;;;5033108;28;20179;-69
2022/05/22 11:17:14;;;;;;;3.58;1.40;;;;;;;;;;5039610;28;20232;-68
2022/05/22 11:19:41;;;;;;;2.97;1.30;;;;;;;;;;5037388;28;20543;-69
2022/05/22 11:22:07;;;;;;;3.75;1.90;;;;;;;;;;5032372;28;20284;-68
2022/05/22 11:24:36;;;;;;;2.58;1.33;;;;;;;;;;5012265;28;20170;-68
2022/05/22 11:27:10;;;;;;;2.22;1.20;;;;;;;;;;5029520;28;20198;-69
2022/05/22 11:29:37;;;;;;;2.65;1.20;;;;;;;;;;5027900;28;20185;-67
2022/05/22 11:32:06;;;;;;;2.75;1.02;;;;;;;;;;5032405;28;20223;-67
2022/05/22 11:34:38;;;;;;;4.35;1.80;;;;;;;;;;5035242;28;20194;-68
2022/05/22 11:37:07;;;;;;;4.15;1.95;;;;;;;;;;5033391;28;20220;-69
2022/05/22 11:39:41;;;;;;;6.25;1.50;;;;;;;;;;5025783;28;20209;-70
2022/05/22 11:42:29;;;;;;;2.38;1.48;;;;;;;;;;5029227;28;20181;-69
2022/05/22 11:45:14;;;;;;;2.13;1.33;;;;;;;;;;5033029;28;20194;-68
2022/05/22 11:47:44;;;;;;;3.05;1.30;;;;;;;;;;5029601;28;20202;-68
2022/05/22 11:50:13;;;;;;;2.22;1.10;;;;;;;;;;5033289;28;20174;-68
2022/05/22 11:52:55;;;;;;;2.85;1.15;;;;;;;;;;5032769;28;20186;-69
2022/05/22 11:55:36;;;;;;;2.22;0.90;;;;;;;;;;5031236;28;20263;-69
2022/05/22 11:58:08;;;;;;;2.35;0.95;;;;;;;;;;5027657;28;20218;-68
2022/05/22 12:00:41;;;;;;;3.05;1.00;;;;;;;;;;5021752;28;20269;-69
2022/05/22 12:03:26;;;;;;;2.50;1.20;;;;;;;;;;5011798;28;20276;-68
2022/05/22 12:06:06;;;;;;;3.88;1.40;;;;;;;;;;5028957;28;20193;-69
2022/05/22 12:08:35;;;;;;;3.35;1.10;;;;;;;;;;5032969;28;20206;-69
2022/05/22 12:11:01;;;;;;;3.25;1.38;;;;;;;;;;5036800;28;20193;-68
2022/05/22 12:13:31;;;;;;;3.38;1.40;;;;;;;;;;5042513;28;20265;-68
2022/05/22 12:16:02;;;;;;;2.55;1.40;;;;;;;;;;5023970;28;20669;-68
2022/05/22 12:18:34;;;;;;;2.22;1.35;;;;;;;;;;5026363;28;20695;-68
2022/05/22 12:21:04;;;;;;;3.00;1.48;;;;;;;;;;5034050;28;20287;-68
2022/05/22 12:23:37;;;;;;;2.85;1.63;;;;;;;;;;5034204;28;20671;-68
2022/05/22 12:26:06;;;;;;;1.95;1.27;;;;;;;;;;5032405;28;20198;-68
2022/05/22 12:28:48;;;;;;;3.47;1.40;;;;;;;;;;5031925;28;20293;-68
2022/05/22 12:31:18;;;;;;;3.15;1.38;;;;;;;;;;5034724;28;20200;-67
2022/05/22 12:33:44;;;;;;;4.43;1.77;;;;;;;;;;5033832;28;20186;-66
2022/05/22 12:36:11;;;;;;;3.10;1.50;;;;;;;;;;5035915;28;20562;-68
2022/05/22 12:38:47;;;;;;;2.97;1.30;;;;;;;;;;5028631;28;20580;-68
2022/05/22 12:41:13;;;;;;;1.23;1.00;;;;;;;;;;5030161;28;20186;-68
2022/05/22 12:43:40;;;;;;;2.28;0.90;;;;;;;;;;5039566;28;20185;-69
2022/05/22 12:46:07;;;;;;;2.47;1.20;;;;;;;;;;5035569;28;20224;-68
2022/05/22 12:48:33;;;;;;;3.00;1.17;;;;;;;;;;5027183;28;20221;-67
2022/05/22 12:51:25;;;;;;;3.58;1.27;;;;;;;;;;5030735;28;20197;-68
2022/05/22 12:53:54;;;;;;;4.53;1.27;;;;;;;;;;5029675;28;20329;-68
2022/05/22 12:56:24;;;;;;;2.22;1.40;;;;;;;;;;5028190;28;20209;-68
2022/05/22 12:58:54;;;;;;;8.05;4.80;;;;;;;;;;5029788;28;20298;-68
2022/05/22 13:01:23;;;;;;;3.65;2.30;;;;;;;;;;5029395;28;20658;-68
2022/05/22 13:03:52;;;;;;;2.35;1.38;;;;;;;;;;5041218;28;20186;-68
2022/05/22 13:06:29;;;;;;;1.67;1.30;;;;;;;;;;5028647;28;20641;-69
2022/05/22 13:09:00;;;;;;;2.45;1.45;;;;;;;;;;5025073;28;20214;-68
2022/05/22 13:11:46;;;;;;;3.03;1.25;;;;;;;;;;5032720;28;20198;-71
2022/05/22 13:14:21;;;;;;;1.77;1.13;;;;;;;;;;4983064;28;20305;-73
2022/05/22 13:16:49;;;;;;;2.85;1.42;;;;;;;;;;5026065;28;20224;-68
2022/05/22 13:19:23;;;;;;;1.90;1.25;;;;;;;;;;5032064;28;20211;-70
2022/05/22 13:21:49;;;;;;;3.28;1.60;;;;;;;;;;5028443;28;20664;-70
2022/05/22 13:24:15;;;;;;;1.73;1.20;;;;;;;;;;5029817;28;20194;-72
2022/05/22 13:26:44;;;;;;;1.90;1.20;;;;;;;;;;5025981;28;20186;-69
2022/05/22 13:29:14;;;;;;;2.65;1.42;;;;;;;;;;5032973;28;20342;-69
2022/05/22 13:31:40;;;;;;;3.90;1.30;;;;;;;;;;5031526;28;20233;-69
2022/05/22 13:34:15;;;;;;;3.33;1.30;;;;;;;;;;5033485;28;20190;-69
2022/05/22 13:36:46;;;;;;;3.35;1.60;;;;;;;;;;5032785;28;21138;-68
2022/05/22 13:39:36;;;;;;;3.22;1.33;;;;;;;;;;5032407;28;20202;-68
2022/05/22 13:42:02;;;;;;;1.40;1.05;;;;;;;;;;5003969;28;20199;-69
2022/05/22 13:44:32;;;;;;;6.40;1.40;;;;;;;;;;5016772;28;20186;-69
2022/05/22 13:47:16;;;;;;;5.00;1.33;;;;;;;;;;5037496;28;20190;-69
2022/05/22 13:49:52;;;;;;;3.05;1.40;;;;;;;;;;5033167;28;20201;-70
2022/05/22 13:52:37;;;;;;;3.25;1.02;;;;;;;;;;5014406;28;20230;-70
2022/05/22 13:55:08;;;;;;;1.85;1.05;;;;;;;;;;5035875;28;20269;-67
2022/05/22 13:57:35;;;;;;;2.33;0.95;;;;;;;;;;5032186;28;20214;-68
2022/05/22 14:00:01;;;;;;;3.22;0.90;;;;;;;;;;5033127;28;20222;-69
2022/05/22 14:02:32;;;;;;;2.17;1.00;;;;;;;;;;5042870;28;20681;-68
2022/05/22 14:04:58;;;;;;;2.28;0.90;;;;;;;;;;5036252;28;20193;-68
2022/05/22 14:07:24;;;;;;;3.47;1.42;;;;;;;;;;5034161;28;20204;-68
2022/05/22 14:09:51;;;;;;;5.63;3.20;;;;;;;;;;5035492;28;20641;-67
2022/05/22 14:12:24;;;;;;;1.50;0.80;;;;;;;;;;5035498;28;20269;-68
2022/05/22 14:14:50;;;;;;;1.60;1.00;;;;;;;;;;5035246;28;20179;-68
2022/05/22 14:17:17;;;;;;;2.17;0.60;;;;;;;;;;5034186;28;20305;-69
2022/05/22 14:19:43;;;;;;;2.67;1.00;;;;;;;;;;5036150;28;20677;-69
2022/05/22 14:22:12;;;;;;;2.13;1.15;;;;;;;;;;5034688;28;20244;-69
2022/05/22 14:24:54;;;;;;;3.50;1.02;;;;;;;;;;5029879;28;20741;-67
2022/05/22 14:27:23;;;;;;;3.33;1.00;;;;;;;;;;5036671;28;20693;-68
2022/05/22 14:29:49;;;;;;;1.52;0.73;;;;;;;;;;5035011;28;20227;-68
2022/05/22 14:32:22;;;;;;;1.73;0.80;;;;;;;;;;5037286;28;20195;-67
2022/05/22 14:34:48;;;;;;;2.60;1.13;;;;;;;;;;5040271;28;20182;-68
2022/05/22 14:37:15;;;;;;;2.35;1.02;;;;;;;;;;5035891;28;20221;-67
2022/05/22 14:39:53;;;;;;;4.07;2.75;;;;;;;;;;5033210;28;20262;-69
2022/05/22 14:42:20;;;;;;;2.08;0.80;;;;;;;;;;5034151;28;20179;-68
2022/05/22 14:44:47;;;;;;;1.75;0.75;;;;;;;;;;5040979;28;20231;-68
2022/05/22 14:47:20;;;;;;;3.25;0.52;;;;;;;;;;5038355;28;20668;-68
2022/05/22 14:49:49;;;;;;;2.30;0.70;;;;;;;;;;5031645;28;20186;-68
2022/05/22 14:52:34;;;;;;;1.17;0.60;;;;;;;;;;5035424;28;20191;-67
2022/05/22 14:55:03;;;;;;;2.05;0.80;;;;;;;;;;5037972;28;20174;-67
2022/05/22 14:57:34;;;;;;;1.80;0.70;;;;;;;;;;5038356;28;20187;-70
2022/05/22 15:00:24;;;;;;;1.75;0.70;;;;;;;;;;5042469;28;20191;-69
2022/05/22 15:02:53;;;;;;;1.30;0.50;;;;;;;;;;5030683;28;20193;-67
2022/05/22 15:05:33;;;;;;;1.67;0.80;;;;;;;;;;5037944;28;20182;-69
2022/05/22 15:08:01;;;;;;;1.38;0.88;;;;;;;;;;5034018;28;20214;-68
2022/05/22 15:10:31;;;;;;;1.23;0.52;;;;;;;;;;5035046;28;20261;-68
2022/05/22 15:13:00;;;;;;;2.03;0.93;;;;;;;;;;5038860;28;20205;-68
2022/05/22 15:15:33;;;;;;;0.82;0.43;;;;;;;;;;5038342;28;20202;-68
2022/05/22 15:18:05;;;;;;;2.10;0.85;;;;;;;;;;5035327;28;20285;-68
2022/05/22 15:20:33;;;;;;;2.08;0.60;;;;;;;;;;5037006;28;20646;-69
2022/05/22 15:25:53;;;;;;;4.07;0.70;;;;;;;;;;5034332;28;20213;-69
2022/05/22 15:28:30;;;;;;;1.98;0.88;;;;;;;;;;5044055;28;20221;-69